createdAt,value
2023-06-26T00:00:59.518Z,99535.59
2023-06-26T00:03:47.387Z,99550.75
2023-06-26T00:06:35.027Z,99532.88
2023-06-26T00:09:24.006Z,99513.34
2023-06-26T00:12:11.641Z,99540.09
2023-06-26T00:14:59.987Z,99536.25
2023-06-26T00:17:47.623Z,99529.81
2023-06-26T00:20:35.400Z,99504.78
2023-06-26T00:23:23.118Z,99521.75
2023-06-26T00:26:12.250Z,99492.41
2023-06-26T00:29:00.032Z,99494.00
2023-06-26T00:31:47.826Z,99489.66
2023-06-26T00:34:35.734Z,99497.38
2023-06-26T00:37:23.397Z,99463.28
2023-06-26T00:40:11.755Z,99478.28
2023-06-26T00:43:01.280Z,99454.34
2023-06-26T00:45:48.951Z,99456.41
2023-06-26T00:48:37.528Z,99452.94
2023-06-26T00:51:25.429Z,99437.59
2023-06-26T00:54:13.598Z,99423.94
2023-06-26T00:57:01.314Z,99399.47
2023-06-26T00:59:50.718Z,99389.94
2023-06-26T01:02:38.527Z,99364.59
2023-06-26T01:05:26.362Z,99355.84
2023-06-26T01:08:15.165Z,99349.38
2023-06-26T01:11:02.842Z,99327.03
2023-06-26T01:13:52.720Z,99308.81
2023-06-26T01:16:42.396Z,99304.66
2023-06-26T01:19:33.062Z,99300.03
2023-06-26T01:22:32.307Z,99298.94
2023-06-26T01:25:30.639Z,99301.22
2023-06-26T01:28:21.155Z,99305.09
2023-06-26T01:31:09.540Z,99308.00
2023-06-26T01:33:59.017Z,99297.78
2023-06-26T01:36:46.949Z,99287.59
2023-06-26T01:39:34.549Z,99293.97
2023-06-26T01:42:22.265Z,99287.13
2023-06-26T01:45:20.086Z,99273.88
2023-06-26T01:48:12.538Z,99267.38
2023-06-26T01:51:02.881Z,99252.63
2023-06-26T01:53:56.343Z,99248.03
2023-06-26T01:56:46.634Z,99252.38
2023-06-26T01:59:36.150Z,99242.88
2023-06-26T02:02:26.268Z,99234.78
2023-06-26T02:05:15.198Z,99233.59
2023-06-26T02:08:02.872Z,99232.44
2023-06-26T02:10:51.729Z,99211.06
2023-06-26T02:13:39.321Z,99221.81
2023-06-26T02:16:26.904Z,99217.13
2023-06-26T02:19:15.947Z,99216.56
2023-06-26T02:22:03.697Z,99211.41
2023-06-26T02:24:51.405Z,99214.97
2023-06-26T02:27:39.076Z,99208.53
2023-06-26T02:30:26.702Z,99193.38
2023-06-26T02:33:14.401Z,99186.56
2023-06-26T02:36:03.614Z,99183.31
2023-06-26T02:38:51.252Z,99175.94
2023-06-26T02:41:40.174Z,99166.31
2023-06-26T02:44:27.896Z,99162.16
2023-06-26T02:47:15.683Z,99157.03
2023-06-26T02:50:06.599Z,99172.47
2023-06-26T02:53:08.316Z,99167.34
2023-06-26T02:55:55.990Z,99172.47
2023-06-26T02:58:43.794Z,99170.34
2023-06-26T03:01:31.648Z,99176.97
2023-06-26T03:04:19.419Z,99177.41
2023-06-26T03:07:07.618Z,99179.59
2023-06-26T03:09:56.732Z,99179.59
2023-06-26T03:12:44.409Z,99167.72
2023-06-26T03:15:32.670Z,99167.31
2023-06-26T03:18:20.515Z,99182.59
2023-06-26T03:21:10.953Z,99179.41
2023-06-26T03:24:00.524Z,99194.16
2023-06-26T03:26:50.311Z,99214.00
2023-06-26T03:29:38.166Z,99206.47
2023-06-26T03:32:26.194Z,99211.56
2023-06-26T03:35:13.924Z,99220.06
2023-06-26T03:38:02.855Z,99249.56
2023-06-26T03:40:50.651Z,99258.25
2023-06-26T03:43:39.684Z,99253.47
2023-06-26T03:46:41.145Z,99276.38
2023-06-26T03:49:28.940Z,99253.69
2023-06-26T03:52:17.189Z,99269.19
2023-06-26T03:55:05.873Z,99251.06
2023-06-26T03:57:53.803Z,99284.31
2023-06-26T04:00:42.931Z,99315.38
2023-06-26T04:03:30.652Z,99321.28
2023-06-26T04:06:18.453Z,99327.16
2023-06-26T04:09:06.313Z,99355.50
2023-06-26T04:11:54.231Z,99348.31
2023-06-26T04:14:41.877Z,99375.72
2023-06-26T04:17:31.378Z,99403.28
2023-06-26T04:20:19.095Z,99427.50
2023-06-26T04:23:06.860Z,99439.81
2023-06-26T04:25:54.819Z,99457.44
2023-06-26T04:28:54.858Z,99462.13
2023-06-26T04:31:42.690Z,99464.97
2023-06-26T04:34:31.733Z,99487.41
2023-06-26T04:37:19.742Z,99493.53
2023-06-26T04:40:08.598Z,99528.19
2023-06-26T04:42:56.274Z,99552.44
2023-06-26T04:45:44.179Z,99546.06
2023-06-26T04:48:32.001Z,99620.06
2023-06-26T04:51:21.093Z,99620.16
2023-06-26T04:54:08.813Z,99667.88
2023-06-26T04:56:56.691Z,99714.16
2023-06-26T04:59:44.382Z,99737.50
2023-06-26T05:02:32.209Z,99819.19
2023-06-26T05:05:20.004Z,99908.03
2023-06-26T05:08:20.041Z,99989.22
2023-06-26T05:11:09.044Z,100034.47
2023-06-26T05:13:56.889Z,100104.69
2023-06-26T05:16:44.644Z,100143.72
2023-06-26T05:19:32.318Z,100160.44
2023-06-26T05:22:21.809Z,100205.72
2023-06-26T05:25:12.122Z,100216.53
2023-06-26T05:28:00.732Z,100213.84
2023-06-26T05:30:48.980Z,100253.63
2023-06-26T05:33:38.039Z,100285.88
2023-06-26T05:36:26.288Z,100325.69
2023-06-26T05:39:14.524Z,100375.97
2023-06-26T05:42:04.708Z,100399.78
2023-06-26T05:44:52.289Z,100387.03
2023-06-26T05:47:40.197Z,100448.69
2023-06-26T05:50:29.451Z,100475.00
2023-06-26T05:53:17.651Z,100488.81
2023-06-26T05:56:05.996Z,100477.53
2023-06-26T05:58:55.599Z,100499.88
2023-06-26T06:01:43.213Z,100529.34
2023-06-26T06:04:31.025Z,100590.88
2023-06-26T06:07:18.723Z,100599.72
2023-06-26T06:10:07.379Z,100623.28
2023-06-26T06:12:54.913Z,100649.84
2023-06-26T06:15:44.175Z,100704.63
2023-06-26T06:18:31.890Z,100742.81
2023-06-26T06:21:19.586Z,100811.91
2023-06-26T06:24:07.568Z,100850.88
2023-06-26T06:26:55.348Z,100903.13
2023-06-26T06:29:43.036Z,100921.59
2023-06-26T06:32:32.002Z,100932.19
2023-06-26T06:35:19.966Z,100952.81
2023-06-26T06:38:07.765Z,100961.63
2023-06-26T06:40:55.449Z,100975.66
2023-06-26T06:43:43.475Z,100982.13
2023-06-26T06:46:31.117Z,100992.84
2023-06-26T06:49:20.182Z,101002.59
2023-06-26T06:52:07.972Z,101037.50
2023-06-26T06:54:57.212Z,101033.22
2023-06-26T06:57:44.802Z,101027.44
2023-06-26T07:00:32.556Z,101025.78
2023-06-26T07:03:20.229Z,101040.97
2023-06-26T07:06:09.249Z,101040.78
2023-06-26T07:08:56.893Z,101055.44
2023-06-26T07:11:44.548Z,101055.91
2023-06-26T07:14:32.297Z,101060.84
2023-06-26T07:17:19.803Z,101048.28
2023-06-26T07:20:07.949Z,101058.84
2023-06-26T07:22:56.925Z,101074.91
2023-06-26T07:25:44.540Z,101083.47
2023-06-26T07:28:32.125Z,101089.09
2023-06-26T07:31:19.830Z,101089.56
2023-06-26T07:34:07.472Z,101097.44
2023-06-26T07:36:55.075Z,101102.97
2023-06-26T07:39:44.035Z,101101.75
2023-06-26T07:42:31.608Z,101129.22
2023-06-26T07:45:19.268Z,101135.72
2023-06-26T07:48:07.362Z,101147.25
2023-06-26T07:50:55.265Z,101156.88
2023-06-26T07:53:44.360Z,101163.16
2023-06-26T07:56:52.655Z,101172.34
2023-06-26T07:59:40.351Z,101202.84
2023-06-26T08:02:28.081Z,101195.47
2023-06-26T08:05:16.013Z,101204.94
2023-06-26T08:08:03.914Z,101203.34
2023-06-26T08:10:54.512Z,101191.28
2023-06-26T08:13:43.585Z,101176.94
2023-06-26T08:16:31.401Z,101175.56
2023-06-26T08:19:19.056Z,101192.03
2023-06-26T08:22:09.422Z,101234.44
2023-06-26T08:24:56.971Z,101207.00
2023-06-26T08:27:44.539Z,101187.38
2023-06-26T08:30:34.442Z,101177.78
2023-06-26T08:33:22.096Z,101204.00
2023-06-26T08:36:09.750Z,101145.28
2023-06-26T08:38:57.572Z,101014.41
2023-06-26T08:41:45.466Z,100497.72
2023-06-26T08:44:33.503Z,99502.66
2023-06-26T08:47:23.657Z,98966.63
2023-06-26T08:50:13.604Z,98819.63
2023-06-26T08:53:06.628Z,98769.44
2023-06-26T08:55:55.492Z,98844.13
2023-06-26T08:58:44.085Z,98988.72
2023-06-26T09:01:33.292Z,99098.09
2023-06-26T09:04:23.841Z,99177.59
2023-06-26T09:07:11.478Z,99247.16
2023-06-26T09:09:59.534Z,99308.72
2023-06-26T09:12:47.815Z,99387.22
2023-06-26T09:15:39.328Z,99494.41
2023-06-26T09:18:27.012Z,99523.59
2023-06-26T09:21:16.240Z,99538.88
2023-06-26T09:24:04.443Z,99527.78
2023-06-26T09:26:52.713Z,99467.03
2023-06-26T09:29:40.577Z,99339.97
2023-06-26T09:32:28.536Z,99247.56
2023-06-26T09:35:16.260Z,99193.16
2023-06-26T09:38:05.541Z,99183.47
2023-06-26T09:40:53.263Z,99158.94
2023-06-26T09:43:46.836Z,98993.63
2023-06-26T09:46:35.254Z,98887.06
2023-06-26T09:49:25.007Z,98876.69
2023-06-26T09:52:15.326Z,98877.59
2023-06-26T09:55:11.363Z,98796.00
2023-06-26T09:58:07.884Z,98805.22
2023-06-26T10:00:55.562Z,98785.13
2023-06-26T10:03:44.002Z,98845.22
2023-06-26T10:06:34.727Z,98952.53
2023-06-26T10:12:19.038Z,99564.25
2023-06-26T10:15:09.827Z,99351.38
2023-06-26T10:17:58.134Z,99275.53
2023-06-26T10:20:49.149Z,99571.69
2023-06-26T10:23:39.952Z,99746.81
2023-06-26T10:26:29.574Z,99883.09
2023-06-26T10:29:21.281Z,100134.44
2023-06-26T10:32:13.792Z,100032.28
2023-06-26T10:35:01.625Z,100069.22
2023-06-26T10:37:50.789Z,100113.56
2023-06-26T10:40:42.966Z,99971.31
2023-06-26T10:43:31.168Z,100203.34
2023-06-26T10:46:23.286Z,100186.53
2023-06-26T10:49:13.724Z,100265.50
2023-06-26T10:52:02.179Z,100364.00
2023-06-26T10:54:49.793Z,100352.16
2023-06-26T10:57:39.153Z,100770.59
2023-06-26T11:00:26.892Z,101007.13
2023-06-26T11:03:25.241Z,101292.88
2023-06-26T11:06:13.963Z,101400.53
2023-06-26T11:09:07.103Z,101432.38
2023-06-26T11:12:01.286Z,101436.25
2023-06-26T11:14:49.795Z,101445.63
2023-06-26T11:17:38.365Z,101418.00
2023-06-26T11:20:28.534Z,101446.84
2023-06-26T11:23:23.148Z,101463.75
2023-06-26T11:26:18.179Z,101467.81
2023-06-26T11:29:06.004Z,101460.22
2023-06-26T11:32:00.931Z,101436.78
2023-06-26T11:34:49.658Z,101399.06
2023-06-26T11:37:38.737Z,101443.31
2023-06-26T11:40:27.193Z,101462.09
2023-06-26T11:43:14.823Z,101468.25
2023-06-26T11:46:02.507Z,101488.00
2023-06-26T11:48:50.771Z,101488.91
2023-06-26T11:51:38.547Z,101492.38
2023-06-26T11:54:28.831Z,101492.44
2023-06-26T11:57:16.910Z,101487.69
2023-06-26T12:00:14.641Z,101488.50
2023-06-26T12:03:02.607Z,101495.00
2023-06-26T12:05:50.642Z,101520.50
2023-06-26T12:08:38.449Z,101509.06
2023-06-26T12:11:30.582Z,101563.94
2023-06-26T12:14:20.946Z,101504.66
2023-06-26T12:17:11.145Z,101514.88
2023-06-26T12:19:58.842Z,101498.03
2023-06-26T12:22:47.368Z,101497.16
2023-06-26T12:25:35.043Z,101511.19
2023-06-26T12:28:24.098Z,101516.22
2023-06-26T12:31:15.642Z,101529.63
2023-06-26T12:34:09.514Z,101515.63
2023-06-26T12:37:02.534Z,101523.47
2023-06-26T12:39:51.772Z,101537.94
2023-06-26T12:42:39.449Z,101552.31
2023-06-26T12:45:33.003Z,101533.22
2023-06-26T12:48:21.302Z,101529.59
2023-06-26T12:51:10.445Z,101522.34
2023-06-26T12:53:58.066Z,101506.28
2023-06-26T12:56:45.650Z,101510.59
2023-06-26T12:59:34.194Z,101559.81
2023-06-26T13:02:23.446Z,101537.22
2023-06-26T13:05:11.436Z,101528.50
2023-06-26T13:07:59.100Z,101523.31
2023-06-26T13:10:46.769Z,101526.59
2023-06-26T13:13:34.420Z,101524.34
2023-06-26T13:16:22.057Z,101543.56
2023-06-26T13:19:11.131Z,101563.59
2023-06-26T13:22:01.071Z,101549.50
2023-06-26T13:24:48.658Z,101537.03
2023-06-26T13:27:36.209Z,101532.47
2023-06-26T13:30:23.772Z,101544.63
2023-06-26T13:33:11.588Z,101531.41
2023-06-26T13:36:00.767Z,101562.13
2023-06-26T13:38:48.619Z,101555.78
2023-06-26T13:41:36.161Z,101547.94
2023-06-26T13:44:28.445Z,101552.41
2023-06-26T13:47:24.006Z,101560.31
2023-06-26T13:50:11.804Z,101545.91
2023-06-26T13:53:00.784Z,101551.63
2023-06-26T13:55:48.666Z,101563.53
2023-06-26T13:58:36.975Z,101565.97
2023-06-26T14:01:24.610Z,101556.38
2023-06-26T14:04:12.302Z,101564.09
2023-06-26T14:06:59.920Z,101581.44
2023-06-26T14:09:48.940Z,101569.69
2023-06-26T14:12:36.582Z,101561.81
2023-06-26T14:15:24.367Z,101572.94
2023-06-26T14:18:12.038Z,101557.31
2023-06-26T14:20:59.826Z,101556.81
2023-06-26T14:23:47.575Z,101565.13
2023-06-26T14:26:36.603Z,101565.72
2023-06-26T14:29:24.244Z,101563.78
2023-06-26T14:32:12.074Z,101583.63
2023-06-26T14:34:59.790Z,101576.59
2023-06-26T14:37:49.371Z,101579.19
2023-06-26T14:40:37.233Z,101567.50
2023-06-26T14:43:26.884Z,101592.13
2023-06-26T14:46:15.162Z,101584.88
2023-06-26T14:49:06.935Z,101567.50
2023-06-26T14:51:54.647Z,101598.03
2023-06-26T14:54:42.262Z,101602.81
2023-06-26T14:57:30.719Z,101621.03
2023-06-26T15:00:20.558Z,101615.06
2023-06-26T15:03:08.330Z,101597.00
2023-06-26T15:05:56.055Z,101593.16
2023-06-26T15:08:43.979Z,101577.63
2023-06-26T15:11:31.840Z,101551.69
2023-06-26T15:14:19.538Z,101589.69
2023-06-26T15:17:09.980Z,101570.09
2023-06-26T15:19:58.148Z,101579.44
2023-06-26T15:22:46.249Z,101568.81
2023-06-26T15:25:33.897Z,101577.06
2023-06-26T15:28:21.428Z,101585.09
2023-06-26T15:31:09.486Z,101592.31
2023-06-26T15:33:58.565Z,101601.44
2023-06-26T15:36:46.173Z,101611.81
2023-06-26T15:39:34.053Z,101607.38
2023-06-26T15:42:21.884Z,101603.22
2023-06-26T15:45:10.203Z,101642.88
2023-06-26T15:47:57.902Z,101642.63
2023-06-26T15:50:49.991Z,101645.03
2023-06-26T15:53:39.599Z,101632.66
2023-06-26T15:56:27.330Z,101630.19
2023-06-26T15:59:14.889Z,101656.13
2023-06-26T16:02:02.570Z,101666.47
2023-06-26T16:04:50.285Z,101662.06
2023-06-26T16:07:55.715Z,101670.59
2023-06-26T16:10:44.578Z,101659.59
2023-06-26T16:13:32.425Z,101669.28
2023-06-26T16:16:20.659Z,101673.69
2023-06-26T16:19:08.406Z,101666.06
2023-06-26T16:21:56.129Z,101664.44
2023-06-26T16:24:45.418Z,101667.19
2023-06-26T16:27:33.320Z,101665.16
2023-06-26T16:30:21.219Z,101681.22
2023-06-26T16:33:12.145Z,101667.53
2023-06-26T16:36:02.826Z,101694.06
2023-06-26T16:38:50.520Z,101666.44
2023-06-26T16:41:39.558Z,101670.88
2023-06-26T16:44:27.335Z,101686.69
2023-06-26T16:47:15.330Z,101662.31
2023-06-26T16:50:03.065Z,101659.31
2023-06-26T16:52:51.246Z,101671.56
2023-06-26T16:55:41.873Z,101675.69
2023-06-26T16:58:31.008Z,101682.09
2023-06-26T17:01:18.923Z,101686.28
2023-06-26T17:04:06.671Z,101676.28
2023-06-26T17:06:54.324Z,101684.31
2023-06-26T17:09:42.534Z,101679.72
2023-06-26T17:12:30.323Z,101691.88
2023-06-26T17:15:19.770Z,101686.38
2023-06-26T17:18:07.748Z,101671.91
2023-06-26T17:20:57.913Z,101676.34
2023-06-26T17:23:45.782Z,101668.56
2023-06-26T17:26:33.869Z,101648.59
2023-06-26T17:29:21.598Z,101639.00
2023-06-26T17:32:16.906Z,101590.03
2023-06-26T17:35:09.955Z,101569.22
2023-06-26T17:37:57.667Z,101594.69
2023-06-26T17:40:45.262Z,101622.63
2023-06-26T17:43:32.916Z,101594.16
2023-06-26T17:46:20.681Z,101597.00
2023-06-26T17:49:12.152Z,101624.53
2023-06-26T17:52:02.983Z,101615.59
2023-06-26T17:54:50.603Z,101632.81
2023-06-26T17:57:38.263Z,101651.59
2023-06-26T18:00:25.950Z,101653.88
2023-06-26T18:03:13.693Z,101619.91
2023-06-26T18:06:02.800Z,101604.28
2023-06-26T18:08:50.922Z,101640.59
2023-06-26T18:11:38.660Z,101648.59
2023-06-26T18:14:26.318Z,101661.84
2023-06-26T18:17:15.060Z,101669.75
2023-06-26T18:20:02.772Z,101672.44
2023-06-26T18:22:51.937Z,101682.31
2023-06-26T18:25:39.641Z,101665.41
2023-06-26T18:28:29.180Z,101667.75
2023-06-26T18:31:16.866Z,101670.19
2023-06-26T18:34:04.567Z,101667.03
2023-06-26T18:36:52.177Z,101627.34
2023-06-26T18:39:41.192Z,101624.63
2023-06-26T18:42:29.010Z,101579.19
2023-06-26T18:45:16.827Z,101559.53
2023-06-26T18:48:05.175Z,101548.81
2023-06-26T18:50:52.858Z,101483.34
2023-06-26T18:53:40.493Z,101428.50
2023-06-26T18:56:30.059Z,101354.13
2023-06-26T18:59:17.717Z,101317.28
2023-06-26T19:02:06.232Z,101258.00
2023-06-26T19:04:53.996Z,101221.63
2023-06-26T19:07:41.851Z,101216.75
2023-06-26T19:10:29.796Z,101230.88
2023-06-26T19:13:18.807Z,101242.47
2023-06-26T19:16:06.690Z,101245.75
2023-06-26T19:18:54.347Z,101289.56
2023-06-26T19:21:41.961Z,101260.53
2023-06-26T19:24:29.662Z,101272.34
2023-06-26T19:27:17.326Z,101259.53
2023-06-26T19:30:07.822Z,101223.44
2023-06-26T19:32:55.410Z,101117.16
2023-06-26T19:35:43.196Z,101112.81
2023-06-26T19:38:30.874Z,101083.19
2023-06-26T19:41:18.562Z,100983.88
2023-06-26T19:44:06.174Z,100854.09
2023-06-26T19:46:55.331Z,100906.16
2023-06-26T19:49:42.993Z,100938.91
2023-06-26T19:52:30.686Z,100924.75
2023-06-26T19:55:18.248Z,100903.53
2023-06-26T19:58:05.978Z,100766.72
2023-06-26T20:00:53.638Z,100763.84
2023-06-26T20:03:42.777Z,100791.50
2023-06-26T20:06:30.572Z,100775.56
2023-06-26T20:09:18.244Z,100698.78
2023-06-26T20:12:06.837Z,100632.81
2023-06-26T20:14:54.637Z,100560.47
2023-06-26T20:17:42.629Z,100492.88
2023-06-26T20:20:31.662Z,100414.66
2023-06-26T20:23:19.193Z,100335.41
2023-06-26T20:26:09.439Z,100268.94
2023-06-26T20:28:57.164Z,100193.03
2023-06-26T20:31:48.427Z,100135.38
2023-06-26T20:34:36.584Z,100095.59
2023-06-26T20:37:25.594Z,100038.19
2023-06-26T20:40:14.590Z,100004.59
2023-06-26T20:43:02.763Z,99965.41
2023-06-26T20:45:50.880Z,99934.66
2023-06-26T20:48:39.001Z,99905.94
2023-06-26T20:51:27.437Z,99873.41
2023-06-26T20:54:17.095Z,99872.13
2023-06-26T20:57:07.833Z,99843.44
2023-06-26T20:59:57.282Z,99793.28
2023-06-26T21:02:45.067Z,99730.81
2023-06-26T21:05:32.773Z,99700.09
2023-06-26T21:08:20.455Z,99680.38
2023-06-26T21:11:09.499Z,99686.78
2023-06-26T21:13:57.152Z,99675.25
2023-06-26T21:16:45.362Z,99675.00
2023-06-26T21:19:32.979Z,99665.78
2023-06-26T21:22:20.647Z,99656.84
2023-06-26T21:25:08.990Z,99647.16
2023-06-26T21:27:58.012Z,99632.56
2023-06-26T21:30:45.648Z,99627.69
2023-06-26T21:33:33.281Z,99626.66
2023-06-26T21:36:20.953Z,99627.44
2023-06-26T21:39:08.615Z,99631.03
2023-06-26T21:41:56.480Z,99624.09
2023-06-26T21:44:45.594Z,99616.69
2023-06-26T21:47:35.763Z,99605.19
2023-06-26T21:50:23.358Z,99605.19
2023-06-26T21:53:12.457Z,99607.50
2023-06-26T21:56:11.924Z,99609.81
2023-06-26T21:58:59.618Z,99603.41
2023-06-26T22:01:48.935Z,99613.13
2023-06-26T22:04:36.699Z,99586.03
2023-06-26T22:07:24.306Z,99598.03
2023-06-26T22:10:12.340Z,99597.28
2023-06-26T22:13:00.047Z,99582.97
2023-06-26T22:15:47.821Z,99591.41
2023-06-26T22:18:36.850Z,99586.03
2023-06-26T22:21:24.844Z,99582.16
2023-06-26T22:24:12.544Z,99569.91
2023-06-26T22:27:00.195Z,99566.56
2023-06-26T22:29:47.780Z,99559.66
2023-06-26T22:32:35.482Z,99545.59
2023-06-26T22:35:24.573Z,99550.22
2023-06-26T22:38:12.234Z,99543.81
2023-06-26T22:41:01.152Z,99537.66
2023-06-26T22:43:48.826Z,99530.53
2023-06-26T22:46:36.470Z,99522.59
2023-06-26T22:49:24.050Z,99520.03
2023-06-26T22:52:13.295Z,99510.59
2023-06-26T22:55:01.143Z,99513.63
2023-06-26T22:57:49.007Z,99507.25
2023-06-26T23:00:36.635Z,99515.69
2023-06-26T23:03:24.383Z,99510.06
2023-06-26T23:06:12.071Z,99509.28
2023-06-26T23:09:01.066Z,99503.66
2023-06-26T23:11:48.735Z,99505.97
2023-06-26T23:14:36.651Z,99505.72
2023-06-26T23:17:24.387Z,99496.25
2023-06-26T23:20:12.728Z,99504.16
2023-06-26T23:23:00.405Z,99487.06
2023-06-26T23:25:49.424Z,99499.31
2023-06-26T23:28:36.987Z,99496.75
2023-06-26T23:31:24.763Z,99489.09
2023-06-26T23:34:12.421Z,99499.03
2023-06-26T23:37:00.032Z,99494.94
2023-06-26T23:39:47.850Z,99498.25
2023-06-26T23:42:37.254Z,99493.44
2023-06-26T23:45:27.300Z,99501.84
2023-06-26T23:48:14.932Z,99493.16
2023-06-26T23:51:02.633Z,99499.50
2023-06-26T23:53:50.251Z,99501.75
2023-06-26T23:56:37.984Z,99503.38
2023-06-26T23:59:27.109Z,99504.09
